Time;durP1;ratioP1;P1;durP2;ratioP2;P2;SDS_P1;SDS_P2;PMS_P1;PMS_P2;Temp;Humidity;BMP_temperature;BMP_pressure;BME280_temperature;BME280_humidity;BME280_pressure;Samples;Min_cycle;Max_cycle;Signal;HPM_P1;HPM_P2
2023/05/11 00:01:08;;;;;;;21.17;11.10;;;12.90;99.90;;;;;;4995084;28;20035;-70
2023/05/11 00:03:34;;;;;;;;;;;12.90;99.90;;;;;;4994145;28;20422;-70
2023/05/11 00:06:00;;;;;;;21.42;10.70;;;12.90;99.90;;;;;;4995282;28;19917;-70
2023/05/11 00:08:26;;;;;;;24.67;12.27;;;12.90;99.90;;;;;;4993208;28;20045;-71
2023/05/11 00:10:52;;;;;;;22.55;12.07;;;12.90;99.90;;;;;;4994514;28;20026;-71
2023/05/11 00:13:19;;;;;;;23.73;12.27;;;12.90;99.90;;;;;;5008584;28;20032;-70
2023/05/11 00:15:45;;;;;;;25.25;13.02;;;12.90;99.90;;;;;;4993972;28;20039;-70
2023/05/11 00:18:10;;;;;;;21.77;12.43;;;13.00;99.90;;;;;;4993677;28;20034;-70
2023/05/11 00:20:36;;;;;;;21.80;11.97;;;13.00;99.90;;;;;;4994521;28;20030;-70
2023/05/11 00:23:03;;;;;;;21.60;11.68;;;13.00;99.90;;;;;;4994852;28;20433;-71
2023/05/11 00:25:28;;;;;;;23.23;11.48;;;13.00;99.90;;;;;;4992746;28;20382;-71
2023/05/11 00:27:54;;;;;;;22.33;12.40;;;13.00;99.90;;;;;;4994883;28;20114;-70
2023/05/11 00:30:20;;;;;;;25.13;11.80;;;13.00;99.90;;;;;;4994922;28;20445;-70
2023/05/11 00:32:47;;;;;;;27.80;12.70;;;13.00;99.90;;;;;;4992466;28;20037;-70
2023/05/11 00:35:13;;;;;;;33.83;13.60;;;13.00;99.90;;;;;;4993043;28;20062;-70
2023/05/11 00:37:39;;;;;;;30.63;13.87;;;13.00;99.90;;;;;;4993128;28;20037;-70
2023/05/11 00:40:05;;;;;;;28.30;13.80;;;13.00;99.90;;;;;;4994706;28;20026;-77
2023/05/11 00:42:31;;;;;;;26.70;13.82;;;13.00;99.90;;;;;;4993202;28;20069;-71
2023/05/11 00:44:58;;;;;;;36.90;13.67;;;13.00;99.90;;;;;;4994414;28;20403;-70
2023/05/11 00:47:24;;;;;;;27.52;13.75;;;12.90;99.90;;;;;;4992795;28;20317;-70
2023/05/11 00:49:52;;;;;;;23.93;13.10;;;12.90;99.90;;;;;;4993401;28;20125;-73
2023/05/11 00:52:20;;;;;;;27.92;15.30;;;12.90;99.90;;;;;;4989255;28;20284;-72
2023/05/11 00:54:46;;;;;;;33.25;13.80;;;12.90;99.90;;;;;;4993335;28;20030;-72
2023/05/11 00:57:13;;;;;;;33.50;15.07;;;13.00;99.90;;;;;;4993659;28;20092;-78
2023/05/11 00:59:39;;;;;;;29.88;14.40;;;12.90;99.90;;;;;;4993329;28;20037;-72
2023/05/11 01:02:06;;;;;;;27.10;13.38;;;12.70;99.90;;;;;;4992424;28;20041;-73
2023/05/11 01:04:32;;;;;;;30.45;14.10;;;12.60;99.90;;;;;;4994416;28;20033;-73
2023/05/11 01:07:07;;;;;;;;;;;12.60;99.90;;;;;;4994770;28;20019;-73
2023/05/11 01:10:01;;;;;;;29.80;13.45;;;12.60;99.90;;;;;;4994997;28;19905;-72
2023/05/11 01:13:01;;;;;;;31.77;13.65;;;12.40;99.90;;;;;;4992215;28;20766;-73
2023/05/11 01:15:38;;;;;;;32.50;15.35;;;12.40;99.90;;;;;;4994193;28;20054;-73
2023/05/11 01:18:31;;;;;;;38.83;17.50;;;12.30;99.90;;;;;;4994446;28;20117;-80
2023/05/11 01:20:59;;;;;;;42.47;17.58;;;12.30;99.90;;;;;;4997042;28;20023;-73
2023/05/11 01:23:37;;;;;;;32.50;15.48;;;12.40;99.90;;;;;;4993953;28;20046;-73
2023/05/11 01:26:29;;;;;;;38.33;15.98;;;12.50;99.90;;;;;;4995796;28;20033;-79
2023/05/11 01:29:32;;;;;;;31.98;15.07;;;12.50;99.90;;;;;;4994302;28;20321;-72
2023/05/11 01:32:03;;;;;;;29.00;14.05;;;12.50;99.90;;;;;;4992787;28;20069;-72
2023/05/11 01:34:34;;;;;;;31.98;14.02;;;12.40;99.90;;;;;;5005562;28;20022;-72
2023/05/11 01:37:07;;;;;;;36.92;14.50;;;12.30;99.90;;;;;;4992782;28;20038;-73
2023/05/11 01:40:07;;;;;;;31.00;14.38;;;12.30;99.90;;;;;;4987050;28;20022;-72
2023/05/11 01:42:49;;;;;;;30.83;13.55;;;12.30;99.90;;;;;;4991822;28;20059;-73
2023/05/11 01:45:18;;;;;;;34.38;15.15;;;12.30;99.90;;;;;;4988488;28;20058;-78
2023/05/11 01:47:47;;;;;;;26.33;13.05;;;12.30;99.90;;;;;;4989144;28;20034;-73
2023/05/11 01:50:14;;;;;;;27.83;13.93;;;12.30;99.90;;;;;;4987923;28;20503;-73
2023/05/11 01:52:42;;;;;;;28.00;13.70;;;12.30;99.90;;;;;;4986189;28;20153;-73
2023/05/11 01:55:09;;;;;;;35.47;14.00;;;12.30;99.90;;;;;;4991343;28;20034;-73
2023/05/11 01:57:37;;;;;;;32.50;13.90;;;12.30;99.90;;;;;;4972056;28;20031;-73
2023/05/11 02:00:03;;;;;;;28.88;13.98;;;12.30;99.90;;;;;;4992412;28;20039;-72
2023/05/11 02:02:30;;;;;;;30.85;12.60;;;12.30;99.90;;;;;;4992600;28;20046;-74
2023/05/11 02:04:57;;;;;;;;;;;12.40;99.90;;;;;;4990503;28;20049;-73
2023/05/11 02:07:26;;;;;;;24.48;10.77;;;12.30;99.90;;;;;;4992866;28;19933;-73
2023/05/11 02:09:54;;;;;;;23.95;11.02;;;12.40;99.90;;;;;;4962615;28;20088;-78
2023/05/11 02:12:21;;;;;;;25.05;12.70;;;12.40;99.90;;;;;;4987310;28;20041;-73
2023/05/11 02:14:50;;;;;;;30.15;13.43;;;12.30;99.90;;;;;;4991552;28;20053;-72
2023/05/11 02:17:17;;;;;;;27.30;11.95;;;12.30;99.90;;;;;;4993805;28;20037;-72
2023/05/11 02:19:45;;;;;;;25.95;12.30;;;12.30;99.90;;;;;;4992207;28;20101;-73
2023/05/11 02:22:12;;;;;;;29.63;12.07;;;12.40;99.90;;;;;;4983968;28;20414;-72
2023/05/11 02:24:38;;;;;;;24.38;12.55;;;12.40;99.90;;;;;;4977453;28;20035;-72
2023/05/11 02:27:04;;;;;;;25.08;11.77;;;12.30;99.90;;;;;;4975053;28;20109;-73
2023/05/11 02:29:30;;;;;;;25.80;12.17;;;12.40;99.90;;;;;;4975272;28;20090;-72
2023/05/11 02:32:08;;;;;;;27.53;12.97;;;12.30;99.90;;;;;;4975530;28;20381;-72
2023/05/11 02:34:43;;;;;;;24.98;12.05;;;12.30;99.90;;;;;;4980598;28;20166;-72
2023/05/11 02:37:23;;;;;;;24.98;12.00;;;12.30;99.90;;;;;;4975222;28;20078;-73
2023/05/11 02:39:56;;;;;;;27.58;11.95;;;12.40;99.90;;;;;;4974305;28;20034;-73
2023/05/11 02:42:25;;;;;;;25.75;11.38;;;12.40;99.90;;;;;;4974330;28;20031;-72
2023/05/11 02:45:03;;;;;;;27.38;12.10;;;12.30;99.90;;;;;;4984397;28;20061;-73
2023/05/11 02:47:53;;;;;;;24.13;11.35;;;12.30;99.90;;;;;;4977183;28;20062;-73
2023/05/11 02:50:23;;;;;;;24.83;11.63;;;12.30;99.90;;;;;;4975991;28;20023;-73
2023/05/11 02:52:52;;;;;;;24.85;11.73;;;12.40;99.90;;;;;;4975709;28;20030;-72
2023/05/11 02:55:21;;;;;;;23.67;11.80;;;12.50;99.90;;;;;;4976571;28;20027;-73
2023/05/11 02:57:47;;;;;;;19.67;10.15;;;12.60;99.90;;;;;;4977706;28;20019;-73
2023/05/11 03:00:13;;;;;;;21.58;9.98;;;12.70;99.90;;;;;;4984807;28;20364;-73
2023/05/11 03:02:39;;;;;;;21.17;10.47;;;12.60;99.90;;;;;;4978021;28;20030;-73
2023/05/11 03:05:05;;;;;;;18.85;9.30;;;12.70;99.90;;;;;;4977342;28;20023;-78
2023/05/11 03:07:32;;;;;;;20.60;9.40;;;12.70;99.90;;;;;;4977824;28;20322;-73
2023/05/11 03:09:59;;;;;;;17.60;9.38;;;12.70;99.90;;;;;;4975969;28;20105;-73
2023/05/11 03:12:30;;;;;;;15.93;8.25;;;12.70;99.90;;;;;;4977657;28;20046;-73
2023/05/11 03:14:58;;;;;;;14.45;7.55;;;12.70;99.90;;;;;;4988035;28;20461;-73
2023/05/11 03:17:25;;;;;;;12.52;6.68;;;12.80;99.90;;;;;;4994740;28;20065;-73
2023/05/11 03:19:53;;;;;;;9.88;5.78;;;12.80;99.90;;;;;;4994738;28;20365;-72
2023/05/11 03:22:20;;;;;;;11.95;6.53;;;12.90;99.90;;;;;;4993753;28;20402;-74
2023/05/11 03:24:46;;;;;;;11.10;6.60;;;12.90;99.90;;;;;;4995952;28;20032;-73
2023/05/11 03:27:13;;;;;;;12.38;5.70;;;12.90;99.90;;;;;;4994477;28;20109;-73
2023/05/11 03:29:42;;;;;;;11.13;5.65;;;12.90;99.90;;;;;;5011098;28;20034;-79
2023/05/11 03:32:08;;;;;;;11.65;6.53;;;12.90;99.90;;;;;;4996031;28;20023;-73
2023/05/11 03:34:34;;;;;;;9.93;5.22;;;12.90;99.90;;;;;;4996859;28;20018;-73
2023/05/11 03:37:01;;;;;;;11.23;5.97;;;12.90;99.90;;;;;;4996596;28;20026;-74
2023/05/11 03:39:30;;;;;;;11.35;5.25;;;12.80;99.90;;;;;;4994610;28;20042;-73
2023/05/11 03:41:57;;;;;;;9.20;5.13;;;12.80;99.90;;;;;;4993503;28;20034;-73
2023/05/11 03:44:25;;;;;;;7.03;4.35;;;12.80;99.90;;;;;;4996274;28;20065;-73
2023/05/11 03:46:54;;;;;;;10.38;5.07;;;12.70;99.90;;;;;;4995594;28;20046;-73
2023/05/11 03:49:20;;;;;;;7.63;5.13;;;12.60;99.90;;;;;;4995921;28;20299;-73
2023/05/11 03:51:46;;;;;;;10.15;5.80;;;12.70;99.90;;;;;;4995014;28;20072;-73
2023/05/11 03:54:12;;;;;;;14.50;5.85;;;12.70;99.90;;;;;;4994786;28;20030;-78
2023/05/11 03:56:39;;;;;;;13.43;5.87;;;12.70;99.90;;;;;;4994677;28;20068;-73
2023/05/11 03:59:06;;;;;;;13.00;6.00;;;12.80;99.90;;;;;;4995700;28;20031;-73
2023/05/11 04:01:32;;;;;;;13.45;7.53;;;12.80;99.90;;;;;;4994677;28;20037;-73
2023/05/11 04:03:58;;;;;;;12.65;7.25;;;12.80;99.90;;;;;;4996062;28;20045;-73
2023/05/11 04:06:24;;;;;;;15.07;7.78;;;12.70;99.90;;;;;;4994462;28;20026;-73
2023/05/11 04:08:49;;;;;;;17.30;8.50;;;12.70;99.90;;;;;;4996110;28;20072;-73
2023/05/11 04:11:16;;;;;;;14.97;8.37;;;12.80;99.90;;;;;;4995111;28;20034;-73
2023/05/11 04:13:41;;;;;;;16.52;7.57;;;12.80;99.90;;;;;;4995319;28;20046;-73
2023/05/11 04:16:07;;;;;;;14.93;8.03;;;12.80;99.90;;;;;;4992731;28;20072;-72
2023/05/11 04:18:33;;;;;;;18.15;8.13;;;12.80;99.90;;;;;;4991198;28;20037;-72
2023/05/11 04:21:00;;;;;;;14.27;7.33;;;12.80;99.90;;;;;;4995024;28;20034;-73
2023/05/11 04:23:26;;;;;;;15.40;7.32;;;12.70;99.90;;;;;;5004370;28;20033;-73
2023/05/11 04:25:53;;;;;;;14.07;7.13;;;12.80;99.90;;;;;;5002344;28;20112;-72
2023/05/11 04:28:20;;;;;;;13.18;7.35;;;12.80;99.90;;;;;;4997127;28;20268;-73
2023/05/11 04:30:52;;;;;;;12.02;6.60;;;12.80;99.90;;;;;;5009266;28;20018;-73
2023/05/11 04:33:18;;;;;;;11.13;6.63;;;12.80;99.90;;;;;;4986818;28;20426;-73
2023/05/11 04:35:44;;;;;;;11.65;6.47;;;12.70;99.90;;;;;;5008324;28;20022;-72
2023/05/11 04:38:10;;;;;;;14.83;7.57;;;12.80;99.90;;;;;;5004436;28;20077;-73
2023/05/11 04:40:36;;;;;;;14.23;7.23;;;12.80;99.90;;;;;;5006291;28;20057;-73
2023/05/11 04:43:02;;;;;;;15.50;8.27;;;12.80;99.90;;;;;;4995212;28;20105;-73
2023/05/11 04:45:28;;;;;;;13.40;7.20;;;12.80;99.90;;;;;;4996385;28;20098;-78
2023/05/11 04:47:54;;;;;;;15.10;7.87;;;12.80;99.90;;;;;;5000428;28;20130;-73
2023/05/11 04:50:19;;;;;;;12.17;7.07;;;12.80;99.90;;;;;;5003147;28;20021;-72
2023/05/11 04:52:45;;;;;;;11.73;6.73;;;12.80;99.90;;;;;;5002199;28;20232;-72
2023/05/11 04:55:11;;;;;;;15.37;7.03;;;12.70;99.90;;;;;;5003131;28;20098;-72
2023/05/11 04:57:37;;;;;;;15.63;9.23;;;12.70;99.90;;;;;;4993696;28;20318;-72
2023/05/11 05:00:08;;;;;;;15.15;7.90;;;12.70;99.90;;;;;;4995070;28;20026;-72
2023/05/11 05:02:34;;;;;;;14.57;7.63;;;12.70;99.90;;;;;;4986804;28;20052;-79
2023/05/11 05:04:59;;;;;;;18.27;8.50;;;12.80;99.90;;;;;;5004428;28;20017;-73
2023/05/11 05:07:26;;;;;;;16.67;8.90;;;12.80;99.90;;;;;;5001026;28;20436;-72
2023/05/11 05:09:51;;;;;;;18.60;9.82;;;12.80;99.90;;;;;;4996274;28;20042;-73
2023/05/11 05:12:17;;;;;;;21.80;8.80;;;12.80;99.90;;;;;;5003842;28;20037;-73
2023/05/11 05:14:43;;;;;;;18.10;8.87;;;12.80;99.90;;;;;;4998758;28;20088;-73
2023/05/11 05:17:09;;;;;;;18.47;8.93;;;12.90;99.90;;;;;;5005586;28;20056;-73
2023/05/11 05:19:35;;;;;;;19.58;9.23;;;13.00;99.90;;;;;;4996197;28;20037;-72
2023/05/11 05:22:00;;;;;;;17.57;9.50;;;13.00;99.90;;;;;;5003768;28;20022;-73
2023/05/11 05:24:26;;;;;;;16.07;8.70;;;13.00;99.90;;;;;;4994263;28;20314;-73
2023/05/11 05:26:52;;;;;;;18.90;8.97;;;13.00;99.90;;;;;;5001200;28;20041;-73
2023/05/11 05:29:18;;;;;;;14.00;8.47;;;13.00;99.90;;;;;;5001991;28;20050;-78
2023/05/11 05:31:44;;;;;;;20.57;10.23;;;13.00;99.90;;;;;;4997054;28;20035;-73
2023/05/11 05:34:10;;;;;;;17.67;9.68;;;13.00;99.90;;;;;;4993677;28;20030;-73
2023/05/11 05:36:35;;;;;;;20.07;10.50;;;13.00;99.90;;;;;;5000403;28;20038;-72
2023/05/11 05:39:02;;;;;;;22.50;10.87;;;13.00;99.90;;;;;;5004013;28;20034;-73
2023/05/11 05:41:28;;;;;;;21.70;11.10;;;13.00;99.90;;;;;;4987974;28;20022;-73
2023/05/11 05:43:54;;;;;;;20.67;11.30;;;13.00;99.90;;;;;;4995431;28;20325;-73
2023/05/11 05:46:20;;;;;;;20.80;11.35;;;13.00;99.90;;;;;;4997187;28;20024;-73
2023/05/11 05:48:45;;;;;;;24.50;11.63;;;13.00;99.90;;;;;;5000883;28;20109;-73
2023/05/11 05:51:11;;;;;;;26.27;11.67;;;13.10;99.90;;;;;;5002428;28;20042;-73
2023/05/11 05:53:37;;;;;;;24.87;11.40;;;13.20;99.90;;;;;;4996557;28;20050;-73
2023/05/11 05:56:03;;;;;;;21.73;10.80;;;13.20;99.90;;;;;;5001113;28;20129;-80
2023/05/11 05:58:29;;;;;;;22.83;11.80;;;13.20;99.90;;;;;;5001522;28;20041;-77
2023/05/11 06:00:55;;;;;;;23.30;12.13;;;13.30;99.90;;;;;;4994876;28;20484;-79
2023/05/11 06:03:21;;;;;;;24.38;12.38;;;13.30;99.90;;;;;;5010048;28;20026;-73
2023/05/11 06:05:46;;;;;;;24.00;12.50;;;13.30;99.90;;;;;;4999704;28;20026;-74
2023/05/11 06:08:12;;;;;;;20.47;11.53;;;13.30;99.90;;;;;;4998123;28;20057;-73
2023/05/11 06:10:38;;;;;;;22.73;11.83;;;13.30;99.90;;;;;;4997600;28;20018;-73
2023/05/11 06:13:04;;;;;;;25.73;12.23;;;13.30;99.90;;;;;;4994657;28;20042;-73
2023/05/11 06:15:29;;;;;;;21.97;11.60;;;13.30;99.90;;;;;;4993865;28;20556;-72
2023/05/11 06:17:55;;;;;;;20.37;10.97;;;13.30;99.90;;;;;;4998059;28;20262;-73
2023/05/11 06:20:22;;;;;;;19.93;10.90;;;13.30;99.90;;;;;;4993686;28;20023;-72
2023/05/11 06:22:47;;;;;;;20.48;11.32;;;13.30;99.90;;;;;;4993376;28;20365;-74
2023/05/11 06:25:13;;;;;;;23.90;11.37;;;13.30;99.90;;;;;;4996202;28;20034;-73
2023/05/11 06:27:39;;;;;;;21.37;12.03;;;13.40;99.90;;;;;;4997203;28;20049;-73
2023/05/11 06:30:06;;;;;;;24.57;11.23;;;13.40;99.90;;;;;;4997506;28;20422;-72
2023/05/11 06:32:33;;;;;;;22.35;12.05;;;13.50;99.90;;;;;;4996608;28;20030;-73
2023/05/11 06:34:58;;;;;;;24.58;12.35;;;13.50;99.90;;;;;;4996709;28;20030;-78
2023/05/11 06:37:27;;;;;;;23.20;13.43;;;13.50;99.90;;;;;;4994105;28;20030;-72
2023/05/11 06:39:53;;;;;;;24.10;12.60;;;13.50;99.90;;;;;;4997064;28;20492;-73
2023/05/11 06:42:19;;;;;;;23.87;12.43;;;13.50;99.90;;;;;;4994716;28;20034;-72
2023/05/11 06:44:44;;;;;;;25.60;13.63;;;13.50;99.90;;;;;;4997993;28;20069;-73
2023/05/11 06:47:10;;;;;;;28.00;14.33;;;13.50;99.90;;;;;;4994158;28;20113;-74
2023/05/11 06:49:36;;;;;;;29.10;14.53;;;13.60;99.90;;;;;;4996886;28;20109;-74
2023/05/11 06:52:17;;;;;;;31.57;14.77;;;13.60;99.90;;;;;;4998328;28;20451;-73
2023/05/11 06:54:42;;;;;;;24.75;12.80;;;13.80;99.90;;;;;;4986816;28;20038;-73
2023/05/11 06:57:08;;;;;;;28.43;14.53;;;13.80;99.90;;;;;;4991234;28;20038;-74
2023/05/11 06:59:34;;;;;;;25.23;14.67;;;13.80;99.90;;;;;;5017474;28;20023;-72
2023/05/11 07:02:00;;;;;;;27.53;15.33;;;13.80;99.90;;;;;;4995467;28;20033;-72
2023/05/11 07:04:28;;;;;;;28.73;14.57;;;13.80;99.90;;;;;;4993519;28;20022;-73
2023/05/11 07:06:54;;;;;;;33.35;15.52;;;13.80;99.90;;;;;;4994992;28;20030;-73
2023/05/11 07:09:20;;;;;;;28.88;15.15;;;13.80;99.90;;;;;;4995637;28;20057;-73
2023/05/11 07:11:46;;;;;;;26.43;14.47;;;13.80;99.90;;;;;;5005848;28;21778;-73
2023/05/11 07:14:11;;;;;;;31.00;15.17;;;13.80;99.90;;;;;;5001310;28;20080;-73
2023/05/11 07:16:37;;;;;;;28.67;15.27;;;13.80;99.90;;;;;;4998253;28;20061;-73
2023/05/11 07:19:08;;;;;;;34.00;16.00;;;13.90;99.90;;;;;;5000875;28;20425;-75
2023/05/11 07:21:36;;;;;;;31.08;15.10;;;14.00;99.90;;;;;;5009823;28;20023;-73
2023/05/11 07:24:02;;;;;;;30.20;15.90;;;14.00;99.90;;;;;;4994248;28;20386;-73
2023/05/11 07:26:28;;;;;;;30.15;15.73;;;14.10;99.90;;;;;;4993495;28;20031;-73
2023/05/11 07:28:54;;;;;;;29.33;15.68;;;14.10;99.90;;;;;;4999857;28;20034;-73
2023/05/11 07:31:20;;;;;;;32.77;15.13;;;14.10;99.90;;;;;;4996001;28;20346;-74
2023/05/11 07:33:46;;;;;;;35.97;17.25;;;14.20;99.90;;;;;;5003827;28;20029;-73
2023/05/11 07:36:12;;;;;;;31.13;15.07;;;14.20;99.90;;;;;;5010417;28;20042;-73
2023/05/11 07:38:38;;;;;;;29.23;15.17;;;14.20;99.90;;;;;;4985951;28;20280;-73
2023/05/11 07:41:04;;;;;;;30.97;15.17;;;14.30;99.90;;;;;;4997609;28;20021;-73
2023/05/11 07:43:30;;;;;;;29.33;15.30;;;14.30;99.90;;;;;;5000048;28;20220;-73
2023/05/11 07:45:56;;;;;;;33.13;16.37;;;14.30;99.90;;;;;;4989572;28;20274;-73
2023/05/11 07:48:22;;;;;;;27.60;14.97;;;14.30;99.90;;;;;;5001936;28;20317;-73
2023/05/11 07:50:50;;;;;;;29.00;14.70;;;14.30;99.90;;;;;;5008817;28;20329;-73
2023/05/11 07:53:16;;;;;;;22.70;12.60;;;14.20;99.90;;;;;;5018778;28;20126;-74
2023/05/11 07:55:42;;;;;;;25.03;12.60;;;14.30;99.90;;;;;;4992239;28;20117;-73
2023/05/11 07:58:07;;;;;;;25.60;13.70;;;14.30;99.90;;;;;;4995240;28;20410;-73
2023/05/11 08:00:34;;;;;;;26.37;14.73;;;14.40;99.90;;;;;;4997272;28;20097;-73
2023/05/11 08:03:00;;;;;;;29.55;13.75;;;14.40;99.90;;;;;;5006988;28;20093;-73
2023/05/11 08:05:26;;;;;;;26.63;13.60;;;14.40;99.90;;;;;;4998143;28;20035;-73
2023/05/11 08:07:52;;;;;;;27.90;14.17;;;14.40;99.90;;;;;;5007776;28;20440;-73
2023/05/11 08:10:18;;;;;;;24.20;13.07;;;14.50;99.90;;;;;;5000428;28;20076;-72
2023/05/11 08:12:44;;;;;;;25.20;12.23;;;14.50;99.90;;;;;;5010482;28;20021;-74
2023/05/11 08:15:10;;;;;;;24.87;12.27;;;14.60;99.90;;;;;;5001164;28;20047;-73
2023/05/11 08:17:36;;;;;;;26.95;13.55;;;14.70;99.90;;;;;;5000139;28;20030;-73
2023/05/11 08:20:05;;;;;;;26.93;14.20;;;14.70;99.90;;;;;;4998790;28;20084;-73
2023/05/11 08:22:31;;;;;;;27.60;14.05;;;14.70;99.90;;;;;;4993564;28;22145;-73
2023/05/11 08:24:57;;;;;;;22.80;13.13;;;14.80;99.90;;;;;;4991091;28;20164;-73
2023/05/11 08:27:23;;;;;;;26.38;12.75;;;14.90;99.90;;;;;;4998763;28;20057;-74
2023/05/11 08:29:49;;;;;;;29.27;14.17;;;14.90;99.90;;;;;;4990061;28;20121;-73
2023/05/11 08:32:15;;;;;;;30.25;15.20;;;14.80;99.90;;;;;;4992656;28;20080;-73
2023/05/11 08:34:41;;;;;;;30.60;14.90;;;15.00;99.90;;;;;;4996320;28;20033;-73
2023/05/11 08:37:07;;;;;;;33.38;15.02;;;15.30;99.90;;;;;;4988125;28;20038;-73
2023/05/11 08:39:33;;;;;;;26.13;14.00;;;15.50;99.90;;;;;;4983386;28;20492;-74
2023/05/11 08:42:01;;;;;;;29.15;15.43;;;15.40;99.90;;;;;;4992732;28;20068;-73
2023/05/11 08:44:29;;;;;;;27.38;15.27;;;15.10;99.90;;;;;;4984698;28;20037;-73
2023/05/11 08:46:58;;;;;;;29.38;14.52;;;15.10;99.90;;;;;;4989653;28;20473;-73
2023/05/11 08:49:25;;;;;;;29.33;14.75;;;15.00;99.90;;;;;;4983578;28;20067;-74
2023/05/11 08:52:19;;;;;;;30.67;16.27;;;15.10;99.90;;;;;;4983664;28;20033;-74
2023/05/11 08:54:45;;;;;;;30.15;14.90;;;14.90;99.90;;;;;;4987784;28;20076;-73
2023/05/11 08:57:13;;;;;;;30.42;15.93;;;14.90;99.90;;;;;;4985924;28;20026;-74
2023/05/11 08:59:43;;;;;;;26.40;15.07;;;14.80;99.90;;;;;;4993148;28;20033;-73
2023/05/11 09:02:15;;;;;;;32.78;15.88;;;15.00;99.90;;;;;;5002149;28;20019;-73
2023/05/11 09:04:42;;;;;;;30.80;15.35;;;15.00;99.90;;;;;;4990048;28;20034;-73
2023/05/11 09:07:10;;;;;;;27.88;15.80;;;15.00;99.90;;;;;;5001216;28;20077;-73
2023/05/11 09:09:36;;;;;;;30.90;16.75;;;15.10;99.90;;;;;;4995715;28;20026;-73
2023/05/11 09:12:02;;;;;;;27.33;14.83;;;15.10;99.90;;;;;;4997211;28;20038;-73
2023/05/11 09:14:29;;;;;;;29.48;16.08;;;15.00;99.90;;;;;;4991237;28;20681;-73
2023/05/11 09:16:55;;;;;;;23.88;12.70;;;15.10;99.90;;;;;;5003318;28;20060;-73
2023/05/11 09:19:21;;;;;;;21.73;11.15;;;15.10;99.90;;;;;;4999040;28;20022;-74
2023/05/11 09:22:16;;;;;;;15.93;9.50;;;15.00;99.90;;;;;;5001903;28;20496;-73
2023/05/11 09:24:42;;;;;;;15.88;8.48;;;14.80;99.90;;;;;;5007956;28;20019;-72
2023/05/11 09:27:08;;;;;;;16.73;8.27;;;14.80;99.90;;;;;;5005297;28;20026;-73
2023/05/11 09:29:34;;;;;;;18.23;9.10;;;14.40;99.90;;;;;;4998066;28;20022;-71
2023/05/11 09:32:00;;;;;;;15.17;7.90;;;14.40;99.90;;;;;;5001001;28;20129;-72
2023/05/11 09:34:26;;;;;;;11.03;6.53;;;14.20;99.90;;;;;;4996881;28;20121;-72
2023/05/11 09:36:55;;;;;;;13.30;7.43;;;14.10;99.90;;;;;;5000173;28;20062;-72
2023/05/11 09:39:35;;;;;;;15.80;7.63;;;14.10;99.90;;;;;;5016855;28;20044;-72
2023/05/11 09:42:15;;;;;;;15.90;7.85;;;14.10;99.90;;;;;;5008305;28;20420;-72
2023/05/11 09:44:42;;;;;;;17.50;9.23;;;14.10;99.90;;;;;;4998408;28;20480;-74
2023/05/11 09:47:16;;;;;;;22.20;8.77;;;14.10;99.90;;;;;;5012549;28;20065;-74
2023/05/11 09:49:43;;;;;;;15.70;7.78;;;14.00;99.90;;;;;;4996733;28;20425;-74
2023/05/11 09:52:19;;;;;;;15.05;7.82;;;13.90;99.90;;;;;;5010271;28;20038;-73
2023/05/11 09:54:48;;;;;;;15.85;7.93;;;13.70;99.90;;;;;;5001940;28;20027;-74
2023/05/11 09:57:33;;;;;;;12.88;7.03;;;13.70;99.90;;;;;;4997434;28;20065;-74
2023/05/11 09:59:59;;;;;;;19.80;8.02;;;13.60;99.90;;;;;;4985856;28;20031;-75
2023/05/11 10:02:27;;;;;;;18.92;9.63;;;13.70;99.90;;;;;;5017881;28;20019;-74
2023/05/11 10:04:55;;;;;;;23.88;10.73;;;13.70;99.90;;;;;;4990935;28;20030;-74
2023/05/11 10:07:34;;;;;;;22.90;12.13;;;13.80;99.90;;;;;;4997189;28;20417;-77
2023/05/11 10:10:03;;;;;;;25.35;11.98;;;13.70;99.90;;;;;;4991900;28;20034;-74
2023/05/11 10:12:32;;;;;;;23.17;12.05;;;13.70;99.90;;;;;;4995186;28;20021;-74
2023/05/11 10:15:06;;;;;;;23.77;12.60;;;13.80;99.90;;;;;;4997274;28;20387;-74
2023/05/11 10:17:32;;;;;;;24.42;12.07;;;13.90;99.90;;;;;;5007326;28;20038;-74
2023/05/11 10:19:59;;;;;;;21.95;11.10;;;13.90;99.90;;;;;;5002130;28;20030;-75
2023/05/11 10:22:27;;;;;;;25.63;12.95;;;13.90;99.90;;;;;;4997294;28;20030;-75
2023/05/11 10:24:55;;;;;;;25.40;12.73;;;13.90;99.90;;;;;;4998771;28;20444;-74
2023/05/11 10:27:21;;;;;;;23.15;11.25;;;14.00;99.90;;;;;;4989984;28;20756;-74
2023/05/11 10:29:49;;;;;;;25.10;12.37;;;14.00;99.90;;;;;;4989644;28;20481;-74
2023/05/11 10:32:16;;;;;;;25.95;12.77;;;14.00;99.90;;;;;;4999868;28;20030;-74
2023/05/11 10:34:45;;;;;;;30.10;13.55;;;13.90;99.90;;;;;;4989467;28;20030;-74
2023/05/11 10:37:12;;;;;;;26.77;12.60;;;14.00;99.90;;;;;;4984724;28;20112;-74
2023/05/11 10:39:39;;;;;;;19.58;11.15;;;14.00;99.90;;;;;;4981156;28;20023;-74
2023/05/11 10:42:11;;;;;;;20.23;10.52;;;13.90;99.90;;;;;;5011138;28;20057;-74
2023/05/11 10:44:49;;;;;;;17.98;9.02;;;13.80;99.90;;;;;;4999462;28;20030;-74
2023/05/11 10:47:24;;;;;;;19.58;9.43;;;13.80;99.90;;;;;;5002122;28;20018;-75
2023/05/11 10:50:08;;;;;;;15.48;8.48;;;13.90;99.90;;;;;;5001765;28;20117;-74
2023/05/11 10:53:05;;;;;;;17.02;9.35;;;13.90;99.90;;;;;;4994501;28;20385;-76
2023/05/11 10:55:57;;;;;;;23.48;10.00;;;14.00;99.90;;;;;;5000224;28;20058;-73
2023/05/11 10:58:25;;;;;;;21.35;10.80;;;14.00;99.90;;;;;;4991951;28;20484;-72
2023/05/11 11:00:54;;;;;;;21.55;10.20;;;14.00;99.90;;;;;;5002966;28;20034;-73
2023/05/11 11:03:20;;;;;;;24.98;11.32;;;14.00;99.90;;;;;;4989984;28;20026;-73
2023/05/11 11:05:47;;;;;;;19.43;10.93;;;14.00;99.90;;;;;;4998253;28;20081;-73
2023/05/11 11:08:13;;;;;;;17.95;9.45;;;14.10;99.90;;;;;;4992310;28;20444;-74
2023/05/11 11:10:44;;;;;;;23.42;10.23;;;14.00;99.90;;;;;;4996086;28;20368;-74
2023/05/11 11:13:15;;;;;;;19.65;10.52;;;14.10;99.90;;;;;;4992663;28;20046;-74
2023/05/11 11:15:53;;;;;;;20.38;10.43;;;14.10;99.90;;;;;;4985596;28;20434;-74
2023/05/11 11:18:24;;;;;;;19.45;10.15;;;14.20;99.90;;;;;;5016755;28;20104;-74
2023/05/11 11:20:52;;;;;;;18.27;10.10;;;14.10;99.90;;;;;;5005420;28;20108;-74
2023/05/11 11:23:42;;;;;;;15.48;9.00;;;14.20;99.90;;;;;;4992828;28;20360;-74
2023/05/11 11:26:17;;;;;;;14.60;7.50;;;14.30;99.90;;;;;;4994166;28;20033;-74
2023/05/11 11:29:01;;;;;;;11.65;7.22;;;14.30;99.90;;;;;;5009202;28;20065;-74
2023/05/11 11:31:28;;;;;;;12.18;6.95;;;14.30;99.90;;;;;;5001517;28;20042;-74
2023/05/11 11:33:57;;;;;;;;;;;14.20;99.90;;;;;;5001381;28;20025;-74
2023/05/11 11:36:54;;;;;;;12.05;6.93;;;14.20;99.90;;;;;;5000689;28;19921;-73
2023/05/11 11:39:27;;;;;;;19.20;9.40;;;14.10;99.90;;;;;;4993400;28;20077;-75
2023/05/11 11:42:04;;;;;;;18.67;9.40;;;14.10;99.90;;;;;;4997739;28;20062;-73
2023/05/11 11:44:30;;;;;;;;;;;14.20;99.90;;;;;;4996744;28;20030;-74
2023/05/11 11:47:14;;;;;;;18.50;9.52;;;14.10;99.90;;;;;;4991091;28;20308;-74
2023/05/11 11:49:45;;;;;;;17.73;9.52;;;14.10;99.90;;;;;;4998970;28;20101;-74
2023/05/11 11:52:13;;;;;;;17.30;8.95;;;14.20;99.90;;;;;;5001442;28;20476;-73
2023/05/11 11:54:40;;;;;;;20.60;10.77;;;14.20;99.90;;;;;;5003871;28;20260;-74
2023/05/11 11:57:45;;;;;;;20.13;10.45;;;14.20;99.90;;;;;;4994626;28;20038;-74
2023/05/11 12:00:13;;;;;;;18.63;10.15;;;14.40;99.90;;;;;;4976635;28;21522;-74
2023/05/11 12:02:43;;;;;;;18.38;10.25;;;14.60;99.90;;;;;;4972084;28;20039;-75
2023/05/11 12:05:13;;;;;;;19.40;10.23;;;14.70;99.90;;;;;;4973896;28;20050;-75
2023/05/11 12:07:43;;;;;;;18.58;10.02;;;14.90;99.90;;;;;;4975210;28;20034;-74
2023/05/11 12:10:12;;;;;;;21.55;10.50;;;15.00;99.90;;;;;;4978412;28;20473;-78
2023/05/11 12:12:38;;;;;;;20.88;9.75;;;15.10;99.90;;;;;;4958490;28;20073;-76
2023/05/11 12:15:06;;;;;;;16.33;9.35;;;15.20;99.90;;;;;;4976972;28;20046;-74
2023/05/11 12:17:35;;;;;;;22.08;9.07;;;15.40;99.90;;;;;;4972583;28;20034;-74
2023/05/11 12:20:13;;;;;;;15.52;7.85;;;15.20;99.90;;;;;;4973701;28;20033;-74
2023/05/11 12:22:39;;;;;;;15.05;8.45;;;15.20;99.90;;;;;;4976615;28;20093;-74
2023/05/11 12:25:06;;;;;;;14.55;7.72;;;15.20;99.90;;;;;;4984712;28;20031;-74
2023/05/11 12:27:32;;;;;;;13.55;8.20;;;15.20;99.90;;;;;;4989713;28;20310;-74
2023/05/11 12:29:59;;;;;;;12.10;6.53;;;15.20;99.90;;;;;;4977845;28;20038;-74
2023/05/11 12:32:29;;;;;;;13.10;7.00;;;15.10;99.90;;;;;;4988889;28;20125;-80
2023/05/11 12:35:00;;;;;;;12.57;6.97;;;15.20;99.90;;;;;;4970359;28;20046;-73
2023/05/11 12:37:26;;;;;;;15.13;7.60;;;15.20;99.90;;;;;;5014414;28;20034;-73
2023/05/11 12:39:56;;;;;;;14.63;8.35;;;15.20;99.90;;;;;;5003281;28;20113;-73
2023/05/11 12:42:22;;;;;;;13.43;7.35;;;15.20;99.90;;;;;;4998856;28;20100;-73